createdAt,value
2023-02-02T00:01:30.560Z,98.69
2023-02-02T00:03:57.684Z,99.06
2023-02-02T00:06:26.079Z,98.47
2023-02-02T00:08:53.411Z,98.93
2023-02-02T00:11:20.241Z,99.34
2023-02-02T00:13:47.168Z,100.00
2023-02-02T00:16:26.043Z,100.00
2023-02-02T00:18:59.350Z,100.00
2023-02-02T00:21:26.768Z,100.00
2023-02-02T00:23:53.467Z,100.00
2023-02-02T00:26:20.860Z,100.00
2023-02-02T00:28:48.153Z,100.00
2023-02-02T00:31:14.878Z,100.00
2023-02-02T00:33:45.596Z,100.00
2023-02-02T00:36:12.268Z,100.00
2023-02-02T00:38:39.069Z,100.00
2023-02-02T00:41:08.780Z,100.00
2023-02-02T00:43:35.447Z,100.00
2023-02-02T00:46:02.376Z,100.00
2023-02-02T00:48:29.204Z,100.00
2023-02-02T00:50:56.028Z,100.00
2023-02-02T00:53:22.792Z,100.00
2023-02-02T00:55:49.466Z,100.00
2023-02-02T00:58:16.145Z,100.00
2023-02-02T01:00:42.952Z,100.00
2023-02-02T01:03:09.757Z,100.00
2023-02-02T01:05:36.785Z,100.00
2023-02-02T01:08:03.510Z,100.00
2023-02-02T01:10:30.457Z,100.00
2023-02-02T01:12:58.929Z,100.00
2023-02-02T01:15:25.908Z,100.00
2023-02-02T01:17:52.709Z,100.00
2023-02-02T01:20:20.665Z,100.00
2023-02-02T01:22:47.747Z,100.00
2023-02-02T01:25:14.739Z,100.00
2023-02-02T01:27:43.123Z,100.00
2023-02-02T01:30:10.807Z,100.00
2023-02-02T01:32:37.556Z,100.00
2023-02-02T01:35:04.569Z,100.00
2023-02-02T01:37:31.393Z,100.00
2023-02-02T01:39:58.049Z,100.00
2023-02-02T01:42:24.923Z,100.00
2023-02-02T01:45:03.824Z,100.00
2023-02-02T01:47:35.370Z,100.00
2023-02-02T01:50:03.339Z,100.00
2023-02-02T01:52:32.481Z,100.00
2023-02-02T01:55:04.435Z,100.00
2023-02-02T01:57:38.291Z,100.00
2023-02-02T02:00:10.206Z,100.00
2023-02-02T02:02:38.767Z,100.00
2023-02-02T02:05:07.630Z,100.00
2023-02-02T02:07:34.608Z,100.00
2023-02-02T02:10:01.281Z,100.00
2023-02-02T02:12:27.959Z,100.00
2023-02-02T02:15:13.325Z,100.00
2023-02-02T02:18:02.960Z,100.00
2023-02-02T02:21:16.314Z,100.00
2023-02-02T02:24:23.685Z,100.00
2023-02-02T02:27:04.185Z,100.00
2023-02-02T02:30:12.875Z,100.00
2023-02-02T02:32:50.898Z,100.00
2023-02-02T02:35:28.597Z,100.00
2023-02-02T02:38:17.956Z,100.00
2023-02-02T02:40:51.552Z,100.00
2023-02-02T02:43:29.154Z,100.00
2023-02-02T02:45:56.392Z,100.00
2023-02-02T02:48:23.416Z,100.00
2023-02-02T02:50:50.117Z,100.00
2023-02-02T02:53:22.339Z,100.00
2023-02-02T02:56:01.549Z,100.00
2023-02-02T02:59:02.553Z,100.00
2023-02-02T03:01:49.976Z,100.00
2023-02-02T03:04:32.423Z,100.00
2023-02-02T03:07:14.183Z,100.00
2023-02-02T03:09:44.239Z,100.00
2023-02-02T03:12:10.959Z,100.00
2023-02-02T03:14:38.117Z,100.00
2023-02-02T03:17:04.902Z,100.00
2023-02-02T03:19:31.632Z,100.00
2023-02-02T03:21:58.395Z,100.00
2023-02-02T03:24:25.161Z,100.00
2023-02-02T03:26:52.117Z,100.00
2023-02-02T03:29:19.032Z,100.00
2023-02-02T03:31:46.698Z,100.00
2023-02-02T03:34:13.525Z,100.00
2023-02-02T03:36:40.243Z,100.00
2023-02-02T03:39:06.927Z,100.00
2023-02-02T03:41:33.683Z,100.00
2023-02-02T03:44:00.330Z,100.00
2023-02-02T03:46:27.701Z,100.00
2023-02-02T03:48:54.450Z,100.00
2023-02-02T03:51:21.232Z,100.00
2023-02-02T03:53:48.089Z,100.00
2023-02-02T03:56:16.007Z,100.00
2023-02-02T03:58:42.678Z,100.00
2023-02-02T04:01:14.612Z,100.00
2023-02-02T04:03:41.778Z,100.00
2023-02-02T04:06:08.764Z,100.00
2023-02-02T04:08:35.477Z,100.00
2023-02-02T04:11:02.411Z,100.00
2023-02-02T04:13:29.232Z,100.00
2023-02-02T04:16:00.176Z,100.00
2023-02-02T04:18:27.742Z,100.00
2023-02-02T04:21:01.748Z,100.00
2023-02-02T04:23:29.538Z,100.00
2023-02-02T04:25:57.102Z,100.00
2023-02-02T04:28:24.507Z,100.00
2023-02-02T04:30:52.744Z,100.00
2023-02-02T04:33:20.374Z,100.00
2023-02-02T04:35:47.328Z,100.00
2023-02-02T04:38:14.273Z,100.00
2023-02-02T04:40:43.034Z,100.00
2023-02-02T04:43:09.910Z,100.00
2023-02-02T04:45:36.815Z,100.00
2023-02-02T04:48:03.980Z,100.00
2023-02-02T04:50:31.115Z,100.00
2023-02-02T04:52:58.037Z,100.00
2023-02-02T04:55:25.075Z,100.00
2023-02-02T04:57:52.013Z,100.00
2023-02-02T05:00:19.124Z,100.00
2023-02-02T05:02:46.145Z,100.00
2023-02-02T05:05:14.135Z,100.00
2023-02-02T05:07:41.072Z,100.00
2023-02-02T05:10:09.847Z,100.00
2023-02-02T05:12:36.613Z,100.00
2023-02-02T05:15:05.403Z,100.00
2023-02-02T05:17:32.765Z,100.00
2023-02-02T05:19:59.562Z,100.00
2023-02-02T05:22:26.911Z,100.00
2023-02-02T05:24:53.697Z,100.00
2023-02-02T05:27:20.936Z,100.00
2023-02-02T05:29:48.159Z,100.00
2023-02-02T05:32:15.299Z,100.00
2023-02-02T05:34:42.183Z,100.00
2023-02-02T05:37:09.080Z,100.00
2023-02-02T05:39:35.821Z,100.00
2023-02-02T05:42:02.538Z,100.00
2023-02-02T05:44:29.316Z,100.00
2023-02-02T05:46:56.080Z,100.00
2023-02-02T05:49:23.189Z,100.00
2023-02-02T05:51:54.033Z,100.00
2023-02-02T05:54:21.501Z,100.00
2023-02-02T05:56:49.356Z,100.00
2023-02-02T05:59:17.469Z,100.00
2023-02-02T06:01:45.487Z,100.00
2023-02-02T06:04:12.729Z,100.00
2023-02-02T06:06:39.923Z,100.00
2023-02-02T06:09:06.900Z,100.00
2023-02-02T06:11:34.709Z,100.00
2023-02-02T06:14:02.100Z,100.00
2023-02-02T06:16:28.865Z,100.00
2023-02-02T06:18:55.816Z,100.00
2023-02-02T06:21:25.487Z,100.00
2023-02-02T06:23:53.934Z,100.00
2023-02-02T06:26:20.704Z,100.00
2023-02-02T06:28:52.642Z,100.00
2023-02-02T06:31:20.336Z,100.00
2023-02-02T06:33:48.539Z,100.00
2023-02-02T06:36:15.290Z,100.00
2023-02-02T06:38:42.022Z,100.00
2023-02-02T06:41:08.795Z,100.00
2023-02-02T06:43:35.440Z,100.00
2023-02-02T06:46:02.215Z,100.00
2023-02-02T06:48:29.023Z,100.00
2023-02-02T06:50:59.722Z,100.00
2023-02-02T06:53:27.296Z,100.00
2023-02-02T06:55:55.719Z,100.00
2023-02-02T06:58:22.927Z,100.00
2023-02-02T07:00:50.158Z,100.00
2023-02-02T07:03:17.036Z,100.00
2023-02-02T07:05:43.780Z,100.00
2023-02-02T07:08:10.485Z,100.00
2023-02-02T07:11:14.288Z,100.00
2023-02-02T07:13:25.349Z,100.00
2023-02-02T07:15:52.165Z,100.00
2023-02-02T07:18:18.865Z,100.00
2023-02-02T07:20:45.524Z,100.00
2023-02-02T07:23:12.261Z,100.00
2023-02-02T07:25:39.090Z,100.00
2023-02-02T07:28:06.036Z,100.00
2023-02-02T07:30:33.368Z,100.00
2023-02-02T07:33:00.532Z,100.00
2023-02-02T07:35:27.501Z,100.00
2023-02-02T07:37:55.402Z,100.00
2023-02-02T07:40:22.363Z,100.00
2023-02-02T07:42:49.322Z,100.00
2023-02-02T07:45:27.725Z,100.00
2023-02-02T07:48:00.937Z,100.00
2023-02-02T07:50:29.467Z,100.00
2023-02-02T07:52:56.545Z,100.00
2023-02-02T07:55:23.317Z,100.00
2023-02-02T07:57:52.663Z,100.00
2023-02-02T08:00:19.982Z,100.00
2023-02-02T08:02:49.251Z,100.00
2023-02-02T08:05:17.237Z,100.00
2023-02-02T08:07:46.086Z,100.00
2023-02-02T08:10:12.897Z,100.00
2023-02-02T08:12:39.724Z,100.00
2023-02-02T08:15:07.688Z,100.00
2023-02-02T08:17:34.414Z,100.00
2023-02-02T08:20:01.116Z,100.00
2023-02-02T08:22:27.803Z,100.00
2023-02-02T08:24:54.470Z,100.00
2023-02-02T08:27:21.207Z,100.00
2023-02-02T08:29:47.968Z,100.00
2023-02-02T08:32:15.031Z,100.00
2023-02-02T08:34:41.705Z,100.00
2023-02-02T08:37:08.495Z,100.00
2023-02-02T08:39:35.250Z,100.00
2023-02-02T08:42:02.027Z,100.00
2023-02-02T08:44:51.766Z,100.00
2023-02-02T08:47:15.475Z,100.00
2023-02-02T08:49:42.447Z,100.00
2023-02-02T08:52:09.389Z,100.00
2023-02-02T08:54:36.198Z,100.00
2023-02-02T08:57:02.991Z,100.00
2023-02-02T08:59:29.643Z,100.00
2023-02-02T09:01:56.553Z,100.00
2023-02-02T09:04:23.374Z,100.00
2023-02-02T09:06:50.261Z,100.00
2023-02-02T09:09:17.396Z,100.00
2023-02-02T09:11:44.615Z,100.00
2023-02-02T09:14:13.161Z,100.00
2023-02-02T09:16:40.522Z,100.00
2023-02-02T09:19:07.782Z,100.00
2023-02-02T09:21:37.658Z,100.00
2023-02-02T09:24:13.249Z,100.00
2023-02-02T09:26:40.537Z,100.00
2023-02-02T09:29:11.307Z,100.00
2023-02-02T09:31:38.482Z,100.00
2023-02-02T09:34:08.266Z,100.00
2023-02-02T09:36:35.544Z,100.00
2023-02-02T09:39:02.645Z,100.00
2023-02-02T09:41:38.561Z,100.00
2023-02-02T09:44:23.986Z,100.00
2023-02-02T09:47:08.622Z,100.00
2023-02-02T09:50:21.079Z,100.00
2023-02-02T09:53:18.423Z,100.00
2023-02-02T09:55:48.629Z,100.00
2023-02-02T09:58:36.797Z,100.00
2023-02-02T10:01:10.448Z,100.00
2023-02-02T10:03:40.047Z,100.00
2023-02-02T10:06:36.656Z,100.00
2023-02-02T10:09:07.763Z,100.00
2023-02-02T10:11:43.512Z,100.00
2023-02-02T10:14:23.644Z,100.00
2023-02-02T10:16:54.106Z,100.00
2023-02-02T10:19:25.278Z,100.00
2023-02-02T10:21:59.832Z,100.00
2023-02-02T10:24:29.575Z,100.00
2023-02-02T10:27:04.019Z,100.00
2023-02-02T10:29:48.791Z,100.00
2023-02-02T10:32:26.330Z,100.00
2023-02-02T10:35:10.899Z,100.00
2023-02-02T10:37:51.192Z,100.00
2023-02-02T10:40:26.869Z,100.00
2023-02-02T10:43:47.548Z,100.00
2023-02-02T10:46:24.272Z,100.00
2023-02-02T10:49:00.574Z,100.00
2023-02-02T10:51:29.338Z,100.00
2023-02-02T10:53:58.947Z,100.00
2023-02-02T10:56:52.625Z,100.00
2023-02-02T10:59:24.878Z,100.00
2023-02-02T11:01:51.900Z,100.00
2023-02-02T11:04:40.548Z,100.00
2023-02-02T11:07:07.267Z,100.00
2023-02-02T11:09:40.842Z,100.00
2023-02-02T11:12:20.548Z,100.00
2023-02-02T11:14:54.188Z,100.00
2023-02-02T11:17:25.739Z,100.00
2023-02-02T11:19:56.607Z,100.00
2023-02-02T11:22:30.099Z,100.00
2023-02-02T11:25:00.297Z,100.00
2023-02-02T11:27:39.894Z,100.00
2023-02-02T11:30:21.934Z,100.00
2023-02-02T11:32:50.673Z,100.00
2023-02-02T11:35:21.857Z,100.00
2023-02-02T11:38:14.521Z,100.00
2023-02-02T11:40:46.163Z,100.00
2023-02-02T11:43:24.974Z,100.00
2023-02-02T11:46:03.491Z,100.00
2023-02-02T11:48:34.669Z,100.00
2023-02-02T11:51:03.132Z,100.00
2023-02-02T11:53:34.689Z,100.00
2023-02-02T11:56:06.053Z,100.00
2023-02-02T11:58:48.609Z,100.00
2023-02-02T12:01:28.958Z,100.00
2023-02-02T12:04:01.557Z,100.00
2023-02-02T12:06:38.617Z,100.00
2023-02-02T12:09:34.878Z,100.00
2023-02-02T12:12:29.732Z,100.00
2023-02-02T12:15:38.254Z,100.00
2023-02-02T12:18:23.667Z,100.00
2023-02-02T12:21:00.983Z,100.00
2023-02-02T12:24:02.415Z,100.00
2023-02-02T12:26:31.919Z,100.00
2023-02-02T12:29:38.467Z,100.00
2023-02-02T12:32:19.828Z,100.00
2023-02-02T12:34:52.911Z,100.00
2023-02-02T12:37:28.958Z,100.00
2023-02-02T12:40:20.888Z,100.00
2023-02-02T12:43:04.319Z,100.00
2023-02-02T12:45:56.734Z,100.00
2023-02-02T12:48:39.796Z,100.00
2023-02-02T12:51:25.108Z,100.00
2023-02-02T12:54:33.744Z,100.00
2023-02-02T12:57:20.969Z,100.00
2023-02-02T13:00:26.922Z,100.00
2023-02-02T13:03:21.238Z,100.00
2023-02-02T13:06:02.403Z,100.00
2023-02-02T13:08:45.445Z,100.00
2023-02-02T13:11:32.591Z,100.00
2023-02-02T13:14:19.714Z,100.00
2023-02-02T13:16:52.165Z,100.00
2023-02-02T13:19:37.077Z,100.00
2023-02-02T13:22:10.847Z,100.00
2023-02-02T13:24:40.371Z,100.00
2023-02-02T13:27:13.922Z,100.00
2023-02-02T13:30:01.619Z,100.00
2023-02-02T13:32:38.309Z,100.00
2023-02-02T13:35:13.243Z,100.00
2023-02-02T13:37:48.123Z,100.00
2023-02-02T13:40:24.087Z,100.00
2023-02-02T13:43:15.886Z,100.00
2023-02-02T13:46:06.215Z,100.00
2023-02-02T13:48:51.295Z,100.00
2023-02-02T13:51:55.002Z,100.00
2023-02-02T13:54:40.177Z,100.00
2023-02-02T13:57:12.964Z,100.00
2023-02-02T13:59:52.464Z,100.00
2023-02-02T14:02:49.035Z,100.00
2023-02-02T14:05:29.050Z,100.00
2023-02-02T14:08:24.045Z,100.00
2023-02-02T14:10:54.016Z,100.00
2023-02-02T14:14:04.840Z,100.00
2023-02-02T14:16:31.680Z,100.00
2023-02-02T14:19:03.147Z,100.00
2023-02-02T14:21:33.092Z,100.00
2023-02-02T14:24:03.762Z,100.00
2023-02-02T14:26:48.566Z,100.00
2023-02-02T14:29:35.870Z,100.00
2023-02-02T14:32:27.906Z,100.00
2023-02-02T14:35:24.787Z,100.00
2023-02-02T14:38:08.141Z,100.00
2023-02-02T14:40:59.681Z,100.00
2023-02-02T14:43:46.088Z,100.00
2023-02-02T14:46:12.993Z,100.00
2023-02-02T14:48:47.208Z,100.00
2023-02-02T14:51:23.802Z,100.00
2023-02-02T14:53:58.215Z,99.67
2023-02-02T14:56:45.394Z,100.00
2023-02-02T14:59:20.428Z,99.29
2023-02-02T15:02:00.766Z,99.34
2023-02-02T15:04:29.167Z,99.09
2023-02-02T15:06:56.564Z,99.32
2023-02-02T15:09:23.393Z,99.43
2023-02-02T15:12:01.007Z,99.23
2023-02-02T15:15:02.390Z,99.46
2023-02-02T15:17:49.962Z,99.70
2023-02-02T15:20:26.519Z,100.00
2023-02-02T15:23:29.465Z,99.77
2023-02-02T15:26:05.792Z,99.97
2023-02-02T15:28:35.787Z,99.86
2023-02-02T15:31:14.810Z,99.84
2023-02-02T15:33:48.165Z,100.00
2023-02-02T15:36:28.737Z,100.00
2023-02-02T15:38:59.646Z,100.00
2023-02-02T15:41:32.556Z,100.00
2023-02-02T15:44:00.317Z,100.00
2023-02-02T15:46:32.441Z,100.00
2023-02-02T15:49:33.912Z,100.00
2023-02-02T15:52:12.357Z,100.00
2023-02-02T15:54:49.783Z,100.00
2023-02-02T15:57:35.125Z,100.00
2023-02-02T16:00:28.739Z,100.00
2023-02-02T16:03:14.116Z,100.00
2023-02-02T16:05:51.187Z,100.00
2023-02-02T16:08:24.563Z,100.00
2023-02-02T16:11:03.085Z,100.00
2023-02-02T16:13:30.594Z,100.00
2023-02-02T16:16:07.021Z,100.00
2023-02-02T16:18:35.466Z,100.00
2023-02-02T16:21:09.843Z,100.00
2023-02-02T16:23:37.703Z,100.00
2023-02-02T16:26:07.111Z,100.00
2023-02-02T16:28:34.645Z,100.00
2023-02-02T16:31:02.669Z,100.00
2023-02-02T16:33:37.796Z,100.00
2023-02-02T16:36:25.674Z,100.00
2023-02-02T16:38:54.523Z,100.00
2023-02-02T16:41:36.024Z,100.00
2023-02-02T16:44:33.339Z,100.00
2023-02-02T16:47:00.227Z,100.00
2023-02-02T16:49:30.826Z,100.00
2023-02-02T16:52:11.502Z,100.00
2023-02-02T16:54:42.420Z,100.00
2023-02-02T16:57:17.932Z,100.00
2023-02-02T16:59:49.581Z,100.00
2023-02-02T17:02:24.101Z,100.00
2023-02-02T17:05:02.133Z,100.00
2023-02-02T17:07:31.653Z,100.00
2023-02-02T17:10:16.755Z,100.00
2023-02-02T17:12:45.423Z,100.00
2023-02-02T17:15:18.310Z,100.00
2023-02-02T17:17:49.619Z,100.00
2023-02-02T17:20:17.808Z,100.00
2023-02-02T17:22:48.347Z,100.00
2023-02-02T17:25:17.385Z,100.00
2023-02-02T17:27:45.186Z,100.00
2023-02-02T17:30:17.574Z,100.00
2023-02-02T17:32:44.790Z,100.00
2023-02-02T17:35:16.361Z,100.00
2023-02-02T17:37:43.159Z,100.00
2023-02-02T17:40:14.824Z,100.00
2023-02-02T17:42:47.474Z,100.00
2023-02-02T17:45:18.996Z,100.00
2023-02-02T17:47:45.798Z,100.00
2023-02-02T17:50:12.569Z,100.00
2023-02-02T17:52:39.777Z,100.00
2023-02-02T17:55:13.636Z,100.00
2023-02-02T17:57:40.566Z,100.00
2023-02-02T18:00:08.050Z,100.00
2023-02-02T18:02:35.109Z,100.00
2023-02-02T18:05:03.654Z,100.00
2023-02-02T18:07:30.377Z,100.00
2023-02-02T18:09:57.233Z,100.00
2023-02-02T18:12:24.003Z,100.00
2023-02-02T18:14:50.705Z,100.00
2023-02-02T18:17:17.387Z,100.00
2023-02-02T18:19:45.229Z,100.00
2023-02-02T18:22:13.646Z,100.00
2023-02-02T18:24:41.102Z,100.00
2023-02-02T18:27:08.518Z,100.00
2023-02-02T18:29:35.519Z,100.00
2023-02-02T18:32:03.238Z,100.00
2023-02-02T18:34:32.235Z,100.00
2023-02-02T18:36:59.201Z,100.00
2023-02-02T18:39:26.334Z,100.00
2023-02-02T18:41:53.226Z,100.00
2023-02-02T18:44:20.060Z,100.00
2023-02-02T18:46:46.781Z,100.00
2023-02-02T18:49:13.491Z,100.00
2023-02-02T18:51:41.257Z,100.00
2023-02-02T18:54:10.936Z,100.00
2023-02-02T18:56:38.060Z,100.00
2023-02-02T18:59:06.284Z,100.00
2023-02-02T19:01:34.430Z,100.00
2023-02-02T19:04:01.423Z,100.00
2023-02-02T19:06:46.861Z,100.00
2023-02-02T19:09:17.163Z,100.00
2023-02-02T19:11:48.553Z,100.00
2023-02-02T19:14:26.869Z,100.00
2023-02-02T19:16:59.276Z,100.00
2023-02-02T19:19:33.970Z,100.00
2023-02-02T19:22:18.530Z,100.00
2023-02-02T19:24:45.776Z,100.00
2023-02-02T19:27:19.745Z,100.00
2023-02-02T19:29:50.600Z,100.00
2023-02-02T19:32:22.596Z,100.00
2023-02-02T19:34:52.450Z,100.00
2023-02-02T19:37:31.170Z,100.00
2023-02-02T19:40:08.179Z,100.00
2023-02-02T19:42:39.436Z,100.00
2023-02-02T19:45:21.747Z,100.00
2023-02-02T19:47:51.094Z,100.00
2023-02-02T19:50:24.467Z,100.00
2023-02-02T19:52:53.389Z,100.00
2023-02-02T19:55:27.198Z,100.00
2023-02-02T19:58:00.714Z,100.00
2023-02-02T20:00:29.878Z,100.00
2023-02-02T20:03:05.908Z,100.00
2023-02-02T20:05:34.380Z,100.00
2023-02-02T20:08:09.005Z,100.00
2023-02-02T20:10:39.369Z,100.00
2023-02-02T20:13:23.380Z,100.00
2023-02-02T20:15:52.330Z,100.00
2023-02-02T20:18:36.215Z,100.00
2023-02-02T20:21:07.552Z,100.00
2023-02-02T20:23:43.034Z,100.00
2023-02-02T20:26:36.422Z,100.00
2023-02-02T20:29:23.207Z,100.00
2023-02-02T20:31:52.734Z,100.00
2023-02-02T20:34:25.349Z,100.00
2023-02-02T20:36:57.428Z,100.00
2023-02-02T20:39:26.917Z,100.00
2023-02-02T20:41:56.973Z,100.00
2023-02-02T20:44:25.341Z,100.00
2023-02-02T20:46:52.555Z,100.00
2023-02-02T20:49:22.314Z,100.00
2023-02-02T20:51:49.301Z,100.00
2023-02-02T20:54:16.007Z,100.00
2023-02-02T20:56:42.990Z,100.00
2023-02-02T20:59:09.735Z,100.00
2023-02-02T21:01:36.525Z,100.00
2023-02-02T21:04:07.000Z,100.00
2023-02-02T21:06:35.585Z,99.71
2023-02-02T21:09:03.352Z,99.22
2023-02-02T21:11:30.552Z,99.34
2023-02-02T21:13:57.650Z,98.66
2023-02-02T21:16:24.879Z,98.64
2023-02-02T21:18:51.849Z,98.25
2023-02-02T21:21:20.926Z,97.83
2023-02-02T21:23:48.131Z,97.45
2023-02-02T21:26:16.635Z,97.33
2023-02-02T21:28:45.533Z,97.02
2023-02-02T21:31:14.325Z,97.00
2023-02-02T21:33:42.279Z,96.78
2023-02-02T21:36:22.891Z,96.98
2023-02-02T21:38:49.568Z,96.52
2023-02-02T21:41:16.232Z,96.79
2023-02-02T21:43:43.029Z,96.66
2023-02-02T21:46:24.725Z,96.67
2023-02-02T21:48:51.736Z,96.21
2023-02-02T21:51:25.671Z,96.69
2023-02-02T21:53:52.901Z,97.02
2023-02-02T21:56:28.694Z,97.13
2023-02-02T21:59:00.250Z,97.93
2023-02-02T22:01:34.349Z,97.78
2023-02-02T22:04:01.390Z,98.03
2023-02-02T22:06:46.625Z,98.44
2023-02-02T22:09:13.318Z,98.48
2023-02-02T22:11:46.374Z,98.77
2023-02-02T22:14:27.275Z,98.90
2023-02-02T22:16:58.086Z,99.26
2023-02-02T22:19:32.891Z,99.60
2023-02-02T22:22:08.650Z,99.93
2023-02-02T22:24:36.415Z,100.00
2023-02-02T22:27:03.398Z,100.00
2023-02-02T22:29:34.897Z,100.00
2023-02-02T22:32:01.609Z,100.00
2023-02-02T22:34:28.288Z,100.00
2023-02-02T22:36:55.012Z,100.00
2023-02-02T22:39:21.757Z,100.00
2023-02-02T22:41:48.597Z,100.00
2023-02-02T22:44:15.301Z,100.00
2023-02-02T22:46:42.036Z,100.00
2023-02-02T22:49:08.803Z,100.00
2023-02-02T22:51:35.512Z,100.00
2023-02-02T22:54:02.240Z,100.00
2023-02-02T22:56:29.028Z,100.00
2023-02-02T22:58:55.759Z,100.00
2023-02-02T23:01:22.593Z,100.00
2023-02-02T23:03:49.530Z,100.00
2023-02-02T23:06:16.203Z,100.00
2023-02-02T23:08:44.167Z,100.00
2023-02-02T23:11:10.910Z,100.00
2023-02-02T23:13:37.732Z,100.00
2023-02-02T23:16:04.706Z,100.00
2023-02-02T23:18:31.426Z,100.00
2023-02-02T23:20:58.153Z,100.00
2023-02-02T23:23:24.816Z,100.00
2023-02-02T23:25:51.588Z,100.00
2023-02-02T23:28:18.278Z,100.00
2023-02-02T23:30:45.036Z,100.00
2023-02-02T23:33:11.712Z,100.00
2023-02-02T23:35:38.379Z,100.00
2023-02-02T23:38:05.226Z,100.00
2023-02-02T23:40:31.898Z,100.00
2023-02-02T23:42:58.580Z,100.00
2023-02-02T23:45:25.355Z,100.00
2023-02-02T23:47:52.096Z,100.00
2023-02-02T23:50:18.954Z,100.00
2023-02-02T23:52:45.806Z,100.00
2023-02-02T23:55:13.745Z,100.00
2023-02-02T23:57:40.561Z,100.00
